createdAt,value
2022-10-01T00:02:12.209Z,13.00
2022-10-01T00:04:39.476Z,13.20
2022-10-01T00:07:10.260Z,12.80
2022-10-01T00:09:37.760Z,13.40
2022-10-01T00:12:04.698Z,9.10
2022-10-01T00:14:31.566Z,13.60
2022-10-01T00:16:58.521Z,9.30
2022-10-01T00:19:25.417Z,9.80
2022-10-01T00:21:52.140Z,10.50
2022-10-01T00:24:18.915Z,10.20
2022-10-01T00:26:47.164Z,8.40
2022-10-01T00:29:15.084Z,11.70
2022-10-01T00:31:42.202Z,10.70
2022-10-01T00:34:12.506Z,9.20
2022-10-01T00:36:39.502Z,10.10
2022-10-01T00:39:06.363Z,10.40
2022-10-01T00:41:35.143Z,9.40
2022-10-01T00:44:31.806Z,7.50
2022-10-01T00:47:20.574Z,9.30
2022-10-01T00:49:50.253Z,8.40
2022-10-01T00:52:24.285Z,8.20
2022-10-01T00:55:28.418Z,14.50
2022-10-01T00:57:56.266Z,10.70
2022-10-01T01:00:23.326Z,7.10
2022-10-01T01:02:50.759Z,12.90
2022-10-01T01:05:18.224Z,6.70
2022-10-01T01:07:48.212Z,9.10
2022-10-01T01:10:19.963Z,10.50
2022-10-01T01:13:31.941Z,10.50
2022-10-01T01:15:58.741Z,8.60
2022-10-01T01:18:34.943Z,8.00
2022-10-01T01:21:12.642Z,8.20
2022-10-01T01:23:58.133Z,10.20
2022-10-01T01:26:53.652Z,8.80
2022-10-01T01:29:36.649Z,11.80
2022-10-01T01:32:17.418Z,11.30
2022-10-01T01:34:48.735Z,11.20
2022-10-01T01:37:20.245Z,8.90
2022-10-01T01:39:52.426Z,8.50
2022-10-01T01:42:26.286Z,10.60
2022-10-01T01:44:57.740Z,6.30
2022-10-01T01:47:32.521Z,12.50
2022-10-01T01:50:02.389Z,12.30
2022-10-01T01:52:30.156Z,6.30
2022-10-01T01:54:57.861Z,5.90
2022-10-01T01:57:24.724Z,7.30
2022-10-01T01:59:53.723Z,7.30
2022-10-01T02:02:28.264Z,8.90
2022-10-01T02:04:59.986Z,6.10
2022-10-01T02:07:55.496Z,6.20
2022-10-01T02:10:36.371Z,7.90
2022-10-01T02:13:29.510Z,7.40
2022-10-01T02:16:34.825Z,9.10
2022-10-01T02:19:39.748Z,9.10
2022-10-01T02:22:17.003Z,8.40
2022-10-01T02:24:58.137Z,7.10
2022-10-01T02:27:39.501Z,8.70
2022-10-01T02:30:09.328Z,6.30
2022-10-01T02:32:40.093Z,8.70
2022-10-01T02:35:10.838Z,7.40
2022-10-01T02:37:40.568Z,7.20
2022-10-01T02:40:12.477Z,7.50
2022-10-01T02:42:47.778Z,7.80
2022-10-01T02:45:19.090Z,6.60
2022-10-01T02:48:07.256Z,8.30
2022-10-01T02:50:43.331Z,6.00
2022-10-01T02:53:19.145Z,10.00
2022-10-01T02:55:48.688Z,7.60
2022-10-01T02:58:18.634Z,6.60
2022-10-01T03:00:45.454Z,9.20
2022-10-01T03:03:12.281Z,8.40
2022-10-01T03:05:42.660Z,6.70
2022-10-01T03:08:09.424Z,7.90
2022-10-01T03:10:36.351Z,6.30
2022-10-01T03:13:05.535Z,6.10
2022-10-01T03:15:32.822Z,9.70
2022-10-01T03:17:59.599Z,6.60
2022-10-01T03:20:26.434Z,6.20
2022-10-01T03:22:53.200Z,8.20
2022-10-01T03:25:20.140Z,9.30
2022-10-01T03:27:51.630Z,8.30
2022-10-01T03:30:18.933Z,7.00
2022-10-01T03:32:45.692Z,7.00
2022-10-01T03:35:12.960Z,5.90
2022-10-01T03:37:39.917Z,7.80
2022-10-01T03:40:07.074Z,10.20
2022-10-01T03:42:33.970Z,10.70
2022-10-01T03:45:00.767Z,14.50
2022-10-01T03:47:27.664Z,32.30
2022-10-01T03:49:54.535Z,23.40
2022-10-01T03:52:22.829Z,22.50
2022-10-01T03:54:49.646Z,22.80
2022-10-01T03:57:16.473Z,17.80
2022-10-01T03:59:43.249Z,16.70
2022-10-01T04:02:10.407Z,22.40
2022-10-01T04:04:37.453Z,8.80
2022-10-01T04:07:04.281Z,12.00
2022-10-01T04:09:31.167Z,11.10
2022-10-01T04:11:59.460Z,8.80
2022-10-01T04:14:26.468Z,12.90
2022-10-01T04:16:53.362Z,10.30
2022-10-01T04:19:20.143Z,11.40
2022-10-01T04:21:49.479Z,9.10
2022-10-01T04:24:16.323Z,6.80
2022-10-01T04:26:43.747Z,8.80
2022-10-01T04:29:11.935Z,6.60
2022-10-01T04:31:39.786Z,6.60
2022-10-01T04:34:06.850Z,7.80
2022-10-01T04:36:33.720Z,8.30
2022-10-01T04:39:02.509Z,6.40
2022-10-01T04:41:31.656Z,8.10
2022-10-01T04:44:02.500Z,5.80
2022-10-01T04:46:29.824Z,6.20
2022-10-01T04:48:56.744Z,11.50
2022-10-01T04:51:24.102Z,5.30
2022-10-01T04:53:50.809Z,5.20
2022-10-01T04:56:17.584Z,6.10
2022-10-01T04:58:45.836Z,5.70
2022-10-01T05:01:12.537Z,4.10
2022-10-01T05:03:39.482Z,8.80
2022-10-01T05:06:06.426Z,7.70
2022-10-01T05:08:41.867Z,5.80
2022-10-01T05:11:08.789Z,5.30
2022-10-01T05:13:35.774Z,6.80
2022-10-01T05:16:03.878Z,7.90
2022-10-01T05:18:31.364Z,7.20
2022-10-01T05:20:58.524Z,5.40
2022-10-01T05:23:25.399Z,7.30
2022-10-01T05:25:52.310Z,4.40
2022-10-01T05:28:22.731Z,5.60
2022-10-01T05:30:50.547Z,5.00
2022-10-01T05:33:17.634Z,5.10
2022-10-01T05:35:44.617Z,4.00
2022-10-01T05:38:11.493Z,5.40
2022-10-01T05:40:38.487Z,4.30
2022-10-01T05:43:09.001Z,4.90
2022-10-01T05:45:43.323Z,5.70
2022-10-01T05:48:11.537Z,4.60
2022-10-01T05:50:40.098Z,7.30
2022-10-01T05:53:09.533Z,6.80
2022-10-01T05:55:37.009Z,5.00
2022-10-01T05:58:10.636Z,5.20
2022-10-01T06:00:39.377Z,6.60
2022-10-01T06:03:07.274Z,7.60
2022-10-01T06:05:35.499Z,5.30
2022-10-01T06:08:06.286Z,7.40
2022-10-01T06:10:33.309Z,4.60
2022-10-01T06:13:01.478Z,4.60
2022-10-01T06:15:29.653Z,5.80
2022-10-01T06:17:56.625Z,7.20
2022-10-01T06:20:23.480Z,5.00
2022-10-01T06:22:55.049Z,5.40
2022-10-01T06:25:23.150Z,4.80
2022-10-01T06:27:55.798Z,5.90
2022-10-01T06:30:25.734Z,5.70
2022-10-01T06:33:00.118Z,3.40
2022-10-01T06:35:26.944Z,4.40
2022-10-01T06:37:53.884Z,5.50
2022-10-01T06:40:20.971Z,4.50
2022-10-01T06:42:48.803Z,3.30
2022-10-01T06:45:17.807Z,4.40
2022-10-01T06:47:45.146Z,4.80
2022-10-01T06:50:32.606Z,6.30
2022-10-01T06:53:00.853Z,4.60
2022-10-01T06:55:30.560Z,3.70
2022-10-01T06:58:01.836Z,5.90
2022-10-01T07:00:34.209Z,5.00
2022-10-01T07:03:04.133Z,6.70
2022-10-01T07:05:36.043Z,8.90
2022-10-01T07:08:03.189Z,5.90
2022-10-01T07:10:31.654Z,5.70
2022-10-01T07:13:08.271Z,7.20
2022-10-01T07:15:35.289Z,9.90
2022-10-01T07:18:02.195Z,4.70
2022-10-01T07:20:30.952Z,6.10
2022-10-01T07:22:59.539Z,4.10
2022-10-01T07:25:27.836Z,8.20
2022-10-01T07:28:04.026Z,6.20
2022-10-01T07:30:31.629Z,5.80
2022-10-01T07:32:58.677Z,4.90
2022-10-01T07:35:26.534Z,12.00
2022-10-01T07:40:22.606Z,14.80
2022-10-01T07:42:54.144Z,7.20
2022-10-01T07:45:22.627Z,6.40
2022-10-01T07:47:58.026Z,5.40
2022-10-01T07:50:26.151Z,9.90
2022-10-01T07:52:54.779Z,13.50
2022-10-01T07:55:25.877Z,11.70
2022-10-01T07:57:57.714Z,11.70
2022-10-01T08:00:27.215Z,8.20
2022-10-01T08:02:55.696Z,14.70
2022-10-01T08:05:28.508Z,8.20
2022-10-01T08:08:00.791Z,13.40
2022-10-01T08:10:28.599Z,13.00
2022-10-01T08:13:07.708Z,7.70
2022-10-01T08:15:35.318Z,17.00
2022-10-01T08:20:31.832Z,15.10
2022-10-01T08:23:06.645Z,24.60
2022-10-01T08:25:36.324Z,21.40
2022-10-01T08:28:06.641Z,8.90
2022-10-01T08:30:39.283Z,17.60
2022-10-01T08:33:07.149Z,15.00
2022-10-01T08:35:34.046Z,12.90
2022-10-01T08:38:03.216Z,8.30
2022-10-01T08:40:38.250Z,7.10
2022-10-01T08:43:13.707Z,6.30
2022-10-01T08:45:47.994Z,8.90
2022-10-01T08:48:40.753Z,11.40
2022-10-01T08:51:20.638Z,10.40
2022-10-01T08:54:13.769Z,11.70
2022-10-01T08:56:47.078Z,13.20
2022-10-01T08:59:35.082Z,16.30
2022-10-01T09:02:02.276Z,9.40
2022-10-01T09:07:20.928Z,6.70
2022-10-01T09:10:13.013Z,7.60
2022-10-01T09:12:42.133Z,11.60
2022-10-01T09:15:15.215Z,7.50
2022-10-01T09:18:18.075Z,5.70
2022-10-01T09:20:53.501Z,5.40
2022-10-01T09:23:23.112Z,7.60
2022-10-01T09:25:50.758Z,10.00
2022-10-01T09:28:40.961Z,3.90
2022-10-01T09:31:46.855Z,3.00
2022-10-01T09:34:19.087Z,4.90
2022-10-01T09:37:14.161Z,6.10
2022-10-01T09:39:45.352Z,5.50
2022-10-01T09:42:12.744Z,7.10
2022-10-01T09:49:44.150Z,4.80
2022-10-01T09:52:26.253Z,2.60
2022-10-01T09:55:07.183Z,5.90
2022-10-01T09:57:52.093Z,4.90
2022-10-01T10:00:24.889Z,7.10
2022-10-01T10:02:54.955Z,5.90
2022-10-01T10:05:25.636Z,7.30
2022-10-01T10:08:15.858Z,7.50
2022-10-01T10:11:20.273Z,5.10
2022-10-01T10:13:53.936Z,4.50
2022-10-01T10:16:30.015Z,5.80
2022-10-01T10:19:01.798Z,11.10
2022-10-01T10:21:34.395Z,7.00
2022-10-01T10:24:21.120Z,11.40
2022-10-01T10:26:57.952Z,4.60
2022-10-01T10:29:32.454Z,4.80
2022-10-01T10:32:04.497Z,5.70
2022-10-01T10:34:37.931Z,3.40
2022-10-01T10:37:13.854Z,3.90
2022-10-01T10:39:43.916Z,7.00
2022-10-01T10:42:15.297Z,3.00
2022-10-01T10:44:46.500Z,6.70
2022-10-01T10:47:16.257Z,7.00
2022-10-01T10:49:54.227Z,4.30
2022-10-01T10:52:25.754Z,4.60
2022-10-01T10:54:55.666Z,4.70
2022-10-01T10:57:37.274Z,3.30
2022-10-01T11:00:18.826Z,5.30
2022-10-01T11:03:06.249Z,5.00
2022-10-01T11:05:40.970Z,3.20
2022-10-01T11:08:17.643Z,6.40
2022-10-01T11:11:06.267Z,4.10
2022-10-01T11:13:42.533Z,4.80
2022-10-01T11:16:25.155Z,4.80
2022-10-01T11:19:32.296Z,7.50
2022-10-01T11:22:11.644Z,4.40
2022-10-01T11:25:03.364Z,7.60
2022-10-01T11:27:48.103Z,4.30
2022-10-01T11:30:24.129Z,4.90
2022-10-01T11:32:53.903Z,3.40
2022-10-01T11:35:42.232Z,2.50
2022-10-01T11:38:38.608Z,4.20
2022-10-01T11:41:13.462Z,3.40
2022-10-01T11:43:50.152Z,4.80
2022-10-01T11:46:43.510Z,3.90
2022-10-01T11:49:26.275Z,5.40
2022-10-01T11:52:00.373Z,4.10
2022-10-01T11:54:31.047Z,2.30
2022-10-01T11:57:17.973Z,3.10
2022-10-01T12:02:32.794Z,4.80
2022-10-01T12:07:31.733Z,2.70
2022-10-01T12:10:29.452Z,3.90
2022-10-01T12:13:16.718Z,3.60
2022-10-01T12:18:52.228Z,5.10
2022-10-01T12:21:26.250Z,2.90
2022-10-01T12:24:05.851Z,4.30
2022-10-01T12:27:00.042Z,4.20
2022-10-01T12:29:43.667Z,4.50
2022-10-01T12:32:37.616Z,4.90
2022-10-01T12:35:35.833Z,4.40
2022-10-01T12:38:29.564Z,3.40
2022-10-01T12:41:33.373Z,2.90
2022-10-01T12:44:07.373Z,4.60
2022-10-01T12:47:11.634Z,5.20
2022-10-01T12:49:58.449Z,4.90
2022-10-01T12:52:48.335Z,3.10
2022-10-01T12:55:29.534Z,3.10
2022-10-01T12:58:19.843Z,3.70
2022-10-01T13:01:26.516Z,3.40
2022-10-01T13:04:21.308Z,3.60
2022-10-01T13:07:05.375Z,2.90
2022-10-01T13:09:36.147Z,3.40
2022-10-01T13:12:40.467Z,6.80
2022-10-01T13:15:23.669Z,7.30
2022-10-01T13:18:38.869Z,4.10
2022-10-01T13:21:08.268Z,4.10
2022-10-01T13:23:50.032Z,5.70
2022-10-01T13:26:58.021Z,3.80
2022-10-01T13:29:42.340Z,4.40
2022-10-01T13:32:29.388Z,6.80
2022-10-01T13:35:00.034Z,6.40
2022-10-01T13:37:32.859Z,4.00
2022-10-01T13:40:02.008Z,5.30
2022-10-01T13:42:42.249Z,4.00
2022-10-01T13:45:22.167Z,4.50
2022-10-01T13:47:50.655Z,4.50
2022-10-01T13:50:27.903Z,4.50
2022-10-01T13:53:08.766Z,4.40
2022-10-01T13:55:43.267Z,5.30
2022-10-01T13:58:23.761Z,5.60
2022-10-01T14:00:55.506Z,6.70
2022-10-01T14:03:34.619Z,5.30
2022-10-01T14:06:07.021Z,5.70
2022-10-01T14:08:44.165Z,5.00
2022-10-01T14:11:33.709Z,12.00
2022-10-01T14:14:49.161Z,4.60
2022-10-01T14:17:23.077Z,7.70
2022-10-01T14:19:51.619Z,5.50
2022-10-01T14:22:28.820Z,5.00
2022-10-01T14:25:05.742Z,5.60
2022-10-01T14:28:19.288Z,4.90
2022-10-01T14:31:08.674Z,5.90
2022-10-01T14:33:39.548Z,5.50
2022-10-01T14:36:21.224Z,4.30
2022-10-01T14:38:49.419Z,5.90
2022-10-01T14:41:24.485Z,4.60
2022-10-01T14:44:14.517Z,5.30
2022-10-01T14:46:42.756Z,5.90
2022-10-01T14:49:30.165Z,8.30
2022-10-01T14:52:04.806Z,7.50
2022-10-01T14:54:59.074Z,4.40
2022-10-01T14:57:29.801Z,6.60
2022-10-01T15:00:01.054Z,6.00
2022-10-01T15:02:29.827Z,4.40
2022-10-01T15:04:58.495Z,4.70
2022-10-01T15:07:36.353Z,4.70
2022-10-01T15:10:09.222Z,6.70
2022-10-01T15:12:41.798Z,5.40
2022-10-01T15:15:31.663Z,5.60
2022-10-01T15:18:03.605Z,6.90
2022-10-01T15:20:31.888Z,6.30
2022-10-01T15:23:01.668Z,11.20
2022-10-01T15:25:32.814Z,5.10
2022-10-01T15:28:01.278Z,6.60
2022-10-01T15:30:29.627Z,7.40
2022-10-01T15:32:58.111Z,8.10
2022-10-01T15:35:28.235Z,8.20
2022-10-01T15:38:00.700Z,9.80
2022-10-01T15:40:35.475Z,7.60
2022-10-01T15:43:22.779Z,9.90
2022-10-01T15:46:06.625Z,9.70
2022-10-01T15:48:38.911Z,8.00
2022-10-01T15:51:19.640Z,9.20
2022-10-01T15:53:49.056Z,8.40
2022-10-01T15:56:24.273Z,8.60
2022-10-01T15:58:57.256Z,8.30
2022-10-01T16:01:49.657Z,10.10
2022-10-01T16:04:21.303Z,7.90
2022-10-01T16:06:52.852Z,7.20
2022-10-01T16:09:24.972Z,8.10
2022-10-01T16:12:12.034Z,8.60
2022-10-01T16:14:56.337Z,10.30
2022-10-01T16:17:33.300Z,8.70
2022-10-01T16:20:36.503Z,9.70
2022-10-01T16:23:42.684Z,7.90
2022-10-01T16:26:44.498Z,8.90
2022-10-01T16:29:12.774Z,9.90
2022-10-01T16:34:17.076Z,12.20
2022-10-01T16:36:45.290Z,10.30
2022-10-01T16:41:56.525Z,14.40
2022-10-01T16:44:39.775Z,19.40
2022-10-01T16:47:11.683Z,24.10
2022-10-01T16:49:39.979Z,18.80
2022-10-01T16:54:36.645Z,20.20
2022-10-01T16:59:36.608Z,16.80
2022-10-01T17:02:04.855Z,16.40
2022-10-01T17:04:35.376Z,18.00
2022-10-01T17:14:30.806Z,18.00
2022-10-01T17:17:00.164Z,19.80
2022-10-01T17:19:29.852Z,20.90
2022-10-01T17:21:59.259Z,21.00
2022-10-01T17:24:27.632Z,26.70
2022-10-01T17:26:55.900Z,30.40
2022-10-01T17:29:24.097Z,31.30
2022-10-01T17:31:53.624Z,27.70
2022-10-01T17:34:22.224Z,28.00
2022-10-01T17:36:50.407Z,27.90
2022-10-01T17:44:16.773Z,25.20
2022-10-01T17:51:43.156Z,25.10
2022-10-01T17:54:11.306Z,27.00
2022-10-01T17:59:08.994Z,21.20
2022-10-01T18:01:37.196Z,19.10
2022-10-01T18:04:05.820Z,23.20
2022-10-01T18:06:34.003Z,21.60
2022-10-01T18:09:02.409Z,21.60
2022-10-01T18:11:30.746Z,18.50
2022-10-01T18:13:59.385Z,22.00
2022-10-01T18:16:28.752Z,19.20
2022-10-01T18:21:51.236Z,22.00
2022-10-01T18:24:19.720Z,22.10
2022-10-01T18:26:47.871Z,23.70
2022-10-01T18:29:29.090Z,25.10
2022-10-01T18:32:22.168Z,21.00
2022-10-01T18:35:00.694Z,24.10
2022-10-01T18:37:36.290Z,25.00
2022-10-01T18:40:40.890Z,19.50
2022-10-01T18:43:20.851Z,24.60
2022-10-01T18:46:14.753Z,22.40
2022-10-01T18:49:13.907Z,23.20
2022-10-01T18:51:52.589Z,19.20
2022-10-01T18:54:34.632Z,26.20
2022-10-01T18:57:21.307Z,20.10
2022-10-01T19:00:09.602Z,20.50
2022-10-01T19:03:14.298Z,17.20
2022-10-01T19:06:31.223Z,19.50
2022-10-01T19:09:22.973Z,20.40
2022-10-01T19:12:02.661Z,24.40
2022-10-01T19:14:46.933Z,20.10
2022-10-01T19:17:50.508Z,20.60
2022-10-01T19:20:46.099Z,17.70
2022-10-01T19:23:35.869Z,21.20
2022-10-01T19:26:24.778Z,21.00
2022-10-01T19:29:40.968Z,20.70
2022-10-01T19:32:25.915Z,19.90
2022-10-01T19:35:15.835Z,21.00
2022-10-01T19:37:55.388Z,20.30
2022-10-01T19:40:53.695Z,21.50
2022-10-01T19:43:33.684Z,19.50
2022-10-01T19:46:17.908Z,21.30
2022-10-01T19:49:18.513Z,19.60
2022-10-01T19:51:56.767Z,18.20
2022-10-01T19:57:30.726Z,27.70
2022-10-01T20:00:10.276Z,16.30
2022-10-01T20:02:50.547Z,15.60
2022-10-01T20:05:28.489Z,21.90
2022-10-01T20:08:30.188Z,18.30
2022-10-01T20:11:15.325Z,20.70
2022-10-01T20:13:53.024Z,21.40
2022-10-01T20:16:36.502Z,16.90
2022-10-01T20:19:14.032Z,22.40
2022-10-01T20:21:58.593Z,16.80
2022-10-01T20:24:42.058Z,18.90
2022-10-01T20:27:21.246Z,20.90
2022-10-01T20:30:12.331Z,18.40
2022-10-01T20:32:49.339Z,16.80
2022-10-01T20:35:32.478Z,15.90
2022-10-01T20:38:23.107Z,20.50
2022-10-01T20:40:57.786Z,19.30
2022-10-01T20:43:44.847Z,18.10
2022-10-01T20:46:40.206Z,19.20
2022-10-01T20:49:23.345Z,20.00
2022-10-01T20:52:10.927Z,23.00
2022-10-01T20:54:52.182Z,18.80
2022-10-01T20:57:39.845Z,18.70
2022-10-01T21:00:19.370Z,25.00
2022-10-01T21:02:54.938Z,22.10
2022-10-01T21:05:41.274Z,19.90
2022-10-01T21:08:38.277Z,20.00
2022-10-01T21:11:45.530Z,22.80
2022-10-01T21:14:25.287Z,17.90
2022-10-01T21:17:23.587Z,19.00
2022-10-01T21:20:27.708Z,18.60
2022-10-01T21:23:22.193Z,21.80
2022-10-01T21:26:26.920Z,21.20
2022-10-01T21:30:15.264Z,22.70
2022-10-01T21:33:03.448Z,19.80
2022-10-01T21:36:15.617Z,18.50
2022-10-01T21:38:49.421Z,17.60
2022-10-01T21:41:48.380Z,21.60
2022-10-01T21:44:59.401Z,18.90
2022-10-01T21:48:00.039Z,16.30
2022-10-01T21:51:33.896Z,15.50
2022-10-01T21:54:40.820Z,16.90
2022-10-01T21:57:48.357Z,15.30
2022-10-01T22:00:23.187Z,14.60
2022-10-01T22:02:53.974Z,14.80
2022-10-01T22:05:41.171Z,13.10
2022-10-01T22:08:24.517Z,14.50
2022-10-01T22:11:00.198Z,14.80
2022-10-01T22:13:33.185Z,15.80
2022-10-01T22:16:13.994Z,16.40
2022-10-01T22:18:49.140Z,21.00
2022-10-01T22:21:29.311Z,19.70
2022-10-01T22:24:06.996Z,19.90
2022-10-01T22:26:40.468Z,17.40
2022-10-01T22:29:16.609Z,17.90
2022-10-01T22:31:47.635Z,17.80
2022-10-01T22:34:22.808Z,17.70
2022-10-01T22:36:54.800Z,18.70
2022-10-01T22:39:31.027Z,17.20
2022-10-01T22:42:15.523Z,16.00
2022-10-01T22:44:44.072Z,18.00
2022-10-01T22:47:46.071Z,20.40
2022-10-01T22:50:39.333Z,20.00
2022-10-01T22:53:25.657Z,17.00
2022-10-01T22:55:56.031Z,19.50
2022-10-01T22:58:57.915Z,19.60
2022-10-01T23:01:56.570Z,22.60
2022-10-01T23:04:59.596Z,20.70
2022-10-01T23:07:46.697Z,18.80
2022-10-01T23:10:49.200Z,18.80
2022-10-01T23:13:28.983Z,21.90
2022-10-01T23:16:31.041Z,24.30
2022-10-01T23:19:11.319Z,21.20
2022-10-01T23:22:06.897Z,28.90
2022-10-01T23:24:50.181Z,24.60
2022-10-01T23:27:43.707Z,27.70
2022-10-01T23:30:15.888Z,29.40
2022-10-01T23:33:02.527Z,25.00
2022-10-01T23:36:13.883Z,24.90
2022-10-01T23:38:57.468Z,28.40
2022-10-01T23:41:40.302Z,29.20
2022-10-01T23:44:16.414Z,35.70
2022-10-01T23:46:48.083Z,31.60
2022-10-01T23:49:19.278Z,35.10
2022-10-01T23:51:59.109Z,33.10
2022-10-01T23:54:43.914Z,35.30
2022-10-01T23:57:24.490Z,31.00
2022-10-01T23:59:58.641Z,32.80
